Sarab, Iran

7:02 PM IRDT on August 01, 2015 (GMT +0430)
Ardabil | | Change Station
CLOSE
Current Station
Airport
Location: Ardabil,
Elevation: 4314 ft
Nearby Weather Stations

Elev 4314 ft 38.33 °N, 48.42 °E | Updated 32 minutes ago

Partly Cloudy
Partly Cloudy
84 °F
Feels Like 83 °F
N
20
Wind Variable Wind from ENE

Today
High -- | Low -- °F
--% Chance of Precip.
Yesterday
High -- | Low -- °F
Precip. -- in
6:22 AM 8:29 PM
Full, 98% visible
Pressure 29.98 in
Visibility 6.2 miles
Clouds Few 5000 ft
Few 8000 ft
Heat Index 83 °F
Dew Point 55 °F
Humidity 37%
Rainfall 0.00 in
Snow Depth Not available.
UV 2 out of 12
Pollen Not available.
Air Quality Not available.
Flu Activity Not available.
METAR OITL 011400Z 07017KT 9999 FEW050CB FEW080 29/13 Q1015

More Conditions Fewer Conditions

Pressure 29.98 in
Visibility 6.2 miles
Clouds Few 5000 ft
Few 8000 ft
Heat Index 83 °F
Dew Point 55 °F
Humidity 37%
Rainfall 0.00 in
Snow Depth Not available.
UV 2 out of 12
Pollen Not available.
Air Quality Not available.
Flu Activity Not available.
METAR OITL 011400Z 07017KT 9999 FEW050CB FEW080 29/13 Q1015

More Conditions Fewer Conditions

10-Day Weather Forecast

×

Almanac

Astronomy

Aug. 01, 2015 Rise Set
Actual Time
Civil Twilight
Nautical Twilight
Astronomical Twilight
Moon
Length of Visible Light
Length of Day
Tomorrow will be .
, % of the Moon is Illuminated

Today's Extremes

Country Highs Country Lows

Community

WunderPhotos

Upload Photos

1,842,956 photos uploaded!

WunderBlogs® & News

Nearby

Air Quality

  Air Quality AQ Index Pollutant
Not available.

Snow Depth

Station Depth Elevation

Earthquake Activity

City Distance Mag. Time & Date
Minimum magnitude displayed is 2.5.

Coastal Water Temperatures

Place Temperature

Stations

Nearby Weather Stations

Station Location Temp. Windchill Dew Point Humidity Wind Precip. Elev Updated Type